sensor_id;sensor_type;location;lat;lon;timestamp;P1;durP1;ratioP1;P2;durP2;ratioP2
15082;SDS011;7640;53.116;6.878;2023-10-08T00:01:36;1.53;;;0.63;;
15082;SDS011;7640;53.116;6.878;2023-10-08T00:04:09;1.53;;;0.60;;
15082;SDS011;7640;53.116;6.878;2023-10-08T00:06:40;1.57;;;0.70;;
15082;SDS011;7640;53.116;6.878;2023-10-08T00:09:09;0.83;;;0.70;;
15082;SDS011;7640;53.116;6.878;2023-10-08T00:11:38;2.77;;;0.77;;
15082;SDS011;7640;53.116;6.878;2023-10-08T00:14:07;1.37;;;0.90;;
15082;SDS011;7640;53.116;6.878;2023-10-08T00:16:37;0.80;;;0.80;;
15082;SDS011;7640;53.116;6.878;2023-10-08T00:19:07;0.60;;;0.60;;
15082;SDS011;7640;53.116;6.878;2023-10-08T00:21:41;0.97;;;0.80;;
15082;SDS011;7640;53.116;6.878;2023-10-08T00:24:11;1.30;;;0.97;;
15082;SDS011;7640;53.116;6.878;2023-10-08T00:26:40;2.40;;;0.83;;
15082;SDS011;7640;53.116;6.878;2023-10-08T00:29:09;1.37;;;0.83;;
15082;SDS011;7640;53.116;6.878;2023-10-08T00:31:48;1.57;;;0.90;;
15082;SDS011;7640;53.116;6.878;2023-10-08T00:34:17;1.53;;;0.73;;
15082;SDS011;7640;53.116;6.878;2023-10-08T00:36:52;0.73;;;0.70;;
15082;SDS011;7640;53.116;6.878;2023-10-08T00:39:21;2.03;;;0.90;;
15082;SDS011;7640;53.116;6.878;2023-10-08T00:41:53;1.17;;;0.93;;
15082;SDS011;7640;53.116;6.878;2023-10-08T00:44:26;0.70;;;0.70;;
15082;SDS011;7640;53.116;6.878;2023-10-08T00:46:57;2.30;;;0.90;;
15082;SDS011;7640;53.116;6.878;2023-10-08T00:49:31;1.27;;;0.80;;
15082;SDS011;7640;53.116;6.878;2023-10-08T00:52:16;1.73;;;0.80;;
15082;SDS011;7640;53.116;6.878;2023-10-08T00:54:56;1.50;;;0.77;;
15082;SDS011;7640;53.116;6.878;2023-10-08T00:57:41;1.23;;;0.80;;
15082;SDS011;7640;53.116;6.878;2023-10-08T01:00:19;1.23;;;0.67;;
15082;SDS011;7640;53.116;6.878;2023-10-08T01:02:49;1.33;;;0.87;;
15082;SDS011;7640;53.116;6.878;2023-10-08T01:05:28;0.80;;;0.70;;
15082;SDS011;7640;53.116;6.878;2023-10-08T01:08:16;1.10;;;0.70;;
15082;SDS011;7640;53.116;6.878;2023-10-08T01:10:49;3.80;;;0.60;;
15082;SDS011;7640;53.116;6.878;2023-10-08T01:13:30;1.00;;;0.60;;
15082;SDS011;7640;53.116;6.878;2023-10-08T01:16:09;1.27;;;0.60;;
15082;SDS011;7640;53.116;6.878;2023-10-08T01:18:37;0.50;;;0.50;;
15082;SDS011;7640;53.116;6.878;2023-10-08T01:21:10;1.77;;;0.73;;
15082;SDS011;7640;53.116;6.878;2023-10-08T01:23:45;1.20;;;0.63;;
15082;SDS011;7640;53.116;6.878;2023-10-08T01:26:19;1.77;;;0.67;;
15082;SDS011;7640;53.116;6.878;2023-10-08T01:28:49;1.37;;;0.93;;
15082;SDS011;7640;53.116;6.878;2023-10-08T01:31:19;3.07;;;0.97;;
15082;SDS011;7640;53.116;6.878;2023-10-08T01:33:48;3.57;;;0.80;;
15082;SDS011;7640;53.116;6.878;2023-10-08T01:36:23;3.17;;;0.90;;
15082;SDS011;7640;53.116;6.878;2023-10-08T01:38:53;2.30;;;0.80;;
15082;SDS011;7640;53.116;6.878;2023-10-08T01:41:22;2.80;;;0.90;;
15082;SDS011;7640;53.116;6.878;2023-10-08T01:43:56;1.37;;;0.70;;
15082;SDS011;7640;53.116;6.878;2023-10-08T01:46:26;2.60;;;0.90;;
15082;SDS011;7640;53.116;6.878;2023-10-08T01:48:55;1.83;;;0.70;;
15082;SDS011;7640;53.116;6.878;2023-10-08T01:51:31;1.90;;;1.10;;
15082;SDS011;7640;53.116;6.878;2023-10-08T01:54:12;2.10;;;0.70;;
15082;SDS011;7640;53.116;6.878;2023-10-08T01:56:44;2.70;;;0.73;;
15082;SDS011;7640;53.116;6.878;2023-10-08T01:59:14;2.77;;;0.80;;
15082;SDS011;7640;53.116;6.878;2023-10-08T02:01:43;2.17;;;1.00;;
15082;SDS011;7640;53.116;6.878;2023-10-08T02:04:13;1.67;;;0.70;;
15082;SDS011;7640;53.116;6.878;2023-10-08T02:06:44;2.47;;;0.80;;
15082;SDS011;7640;53.116;6.878;2023-10-08T02:09:15;1.73;;;0.90;;
15082;SDS011;7640;53.116;6.878;2023-10-08T02:11:52;3.70;;;1.10;;
15082;SDS011;7640;53.116;6.878;2023-10-08T02:14:21;3.00;;;1.03;;
15082;SDS011;7640;53.116;6.878;2023-10-08T02:16:50;3.70;;;1.27;;
15082;SDS011;7640;53.116;6.878;2023-10-08T02:19:23;2.40;;;1.33;;
15082;SDS011;7640;53.116;6.878;2023-10-08T02:21:55;1.43;;;1.13;;
15082;SDS011;7640;53.116;6.878;2023-10-08T02:24:26;3.83;;;1.33;;
15082;SDS011;7640;53.116;6.878;2023-10-08T02:27:02;2.83;;;1.10;;
15082;SDS011;7640;53.116;6.878;2023-10-08T02:29:32;1.37;;;0.90;;
15082;SDS011;7640;53.116;6.878;2023-10-08T02:32:02;3.40;;;1.30;;
15082;SDS011;7640;53.116;6.878;2023-10-08T02:34:31;2.10;;;1.00;;
15082;SDS011;7640;53.116;6.878;2023-10-08T02:37:02;2.50;;;1.50;;
15082;SDS011;7640;53.116;6.878;2023-10-08T02:39:34;2.63;;;1.20;;
15082;SDS011;7640;53.116;6.878;2023-10-08T02:42:06;2.43;;;1.10;;
15082;SDS011;7640;53.116;6.878;2023-10-08T02:44:37;4.97;;;0.90;;
15082;SDS011;7640;53.116;6.878;2023-10-08T02:47:10;2.17;;;1.00;;
15082;SDS011;7640;53.116;6.878;2023-10-08T02:49:43;2.80;;;1.00;;
15082;SDS011;7640;53.116;6.878;2023-10-08T02:52:14;3.47;;;0.97;;
15082;SDS011;7640;53.116;6.878;2023-10-08T02:54:45;1.10;;;0.80;;
15082;SDS011;7640;53.116;6.878;2023-10-08T02:57:13;3.03;;;1.13;;
15082;SDS011;7640;53.116;6.878;2023-10-08T02:59:42;1.43;;;1.10;;
15082;SDS011;7640;53.116;6.878;2023-10-08T03:02:12;2.47;;;1.40;;
15082;SDS011;7640;53.116;6.878;2023-10-08T03:04:46;3.00;;;1.30;;
15082;SDS011;7640;53.116;6.878;2023-10-08T03:07:18;2.60;;;1.07;;
15082;SDS011;7640;53.116;6.878;2023-10-08T03:10:00;5.67;;;1.87;;
15082;SDS011;7640;53.116;6.878;2023-10-08T03:12:33;3.37;;;1.60;;
15082;SDS011;7640;53.116;6.878;2023-10-08T03:15:02;4.70;;;1.73;;
15082;SDS011;7640;53.116;6.878;2023-10-08T03:17:41;3.17;;;1.10;;
15082;SDS011;7640;53.116;6.878;2023-10-08T03:20:17;4.07;;;1.70;;
15082;SDS011;7640;53.116;6.878;2023-10-08T03:23:04;6.30;;;1.60;;
15082;SDS011;7640;53.116;6.878;2023-10-08T03:25:41;4.63;;;1.37;;
15082;SDS011;7640;53.116;6.878;2023-10-08T03:28:12;3.23;;;1.07;;
15082;SDS011;7640;53.116;6.878;2023-10-08T03:30:44;3.10;;;1.40;;
15082;SDS011;7640;53.116;6.878;2023-10-08T03:33:16;3.53;;;1.67;;
15082;SDS011;7640;53.116;6.878;2023-10-08T03:35:51;3.37;;;1.30;;
15082;SDS011;7640;53.116;6.878;2023-10-08T03:38:22;3.67;;;1.33;;
15082;SDS011;7640;53.116;6.878;2023-10-08T03:41:11;3.00;;;1.43;;
15082;SDS011;7640;53.116;6.878;2023-10-08T03:43:45;2.10;;;1.37;;
15082;SDS011;7640;53.116;6.878;2023-10-08T03:46:19;4.43;;;1.67;;
15082;SDS011;7640;53.116;6.878;2023-10-08T03:48:50;4.37;;;1.60;;
15082;SDS011;7640;53.116;6.878;2023-10-08T03:51:21;2.33;;;1.50;;
15082;SDS011;7640;53.116;6.878;2023-10-08T03:53:53;2.87;;;1.60;;
15082;SDS011;7640;53.116;6.878;2023-10-08T03:56:34;3.03;;;1.17;;
15082;SDS011;7640;53.116;6.878;2023-10-08T03:59:04;4.33;;;1.37;;
15082;SDS011;7640;53.116;6.878;2023-10-08T04:01:40;2.73;;;1.53;;
15082;SDS011;7640;53.116;6.878;2023-10-08T04:04:10;3.20;;;1.37;;
15082;SDS011;7640;53.116;6.878;2023-10-08T04:06:41;3.60;;;1.20;;
15082;SDS011;7640;53.116;6.878;2023-10-08T04:09:16;2.97;;;1.47;;
15082;SDS011;7640;53.116;6.878;2023-10-08T04:11:52;2.70;;;1.17;;
15082;SDS011;7640;53.116;6.878;2023-10-08T04:14:25;3.43;;;1.40;;
15082;SDS011;7640;53.116;6.878;2023-10-08T04:16:55;5.70;;;1.80;;
15082;SDS011;7640;53.116;6.878;2023-10-08T04:19:25;3.13;;;1.40;;
15082;SDS011;7640;53.116;6.878;2023-10-08T04:21:54;4.93;;;1.90;;
15082;SDS011;7640;53.116;6.878;2023-10-08T04:24:24;3.63;;;2.10;;
15082;SDS011;7640;53.116;6.878;2023-10-08T04:27:02;5.43;;;2.10;;
15082;SDS011;7640;53.116;6.878;2023-10-08T04:29:35;4.20;;;2.27;;
15082;SDS011;7640;53.116;6.878;2023-10-08T04:32:04;5.10;;;2.20;;
15082;SDS011;7640;53.116;6.878;2023-10-08T04:34:39;3.33;;;2.33;;
15082;SDS011;7640;53.116;6.878;2023-10-08T04:37:13;5.47;;;2.13;;
15082;SDS011;7640;53.116;6.878;2023-10-08T04:39:47;5.53;;;2.27;;
15082;SDS011;7640;53.116;6.878;2023-10-08T04:42:26;4.83;;;2.40;;
15082;SDS011;7640;53.116;6.878;2023-10-08T04:44:55;6.30;;;2.37;;
15082;SDS011;7640;53.116;6.878;2023-10-08T04:47:25;6.13;;;2.50;;
15082;SDS011;7640;53.116;6.878;2023-10-08T04:49:59;4.97;;;2.20;;
15082;SDS011;7640;53.116;6.878;2023-10-08T04:52:31;4.50;;;2.27;;
15082;SDS011;7640;53.116;6.878;2023-10-08T04:55:12;7.37;;;2.20;;
15082;SDS011;7640;53.116;6.878;2023-10-08T04:57:48;4.33;;;2.10;;
15082;SDS011;7640;53.116;6.878;2023-10-08T05:00:19;4.83;;;2.13;;
15082;SDS011;7640;53.116;6.878;2023-10-08T05:03:07;4.57;;;2.43;;
15082;SDS011;7640;53.116;6.878;2023-10-08T05:05:41;5.60;;;2.20;;
15082;SDS011;7640;53.116;6.878;2023-10-08T05:08:32;6.83;;;2.17;;
15082;SDS011;7640;53.116;6.878;2023-10-08T05:11:14;4.30;;;1.70;;
15082;SDS011;7640;53.116;6.878;2023-10-08T05:13:53;4.07;;;1.90;;
15082;SDS011;7640;53.116;6.878;2023-10-08T05:16:32;4.97;;;2.00;;
15082;SDS011;7640;53.116;6.878;2023-10-08T05:19:10;5.10;;;1.80;;
15082;SDS011;7640;53.116;6.878;2023-10-08T05:21:52;6.57;;;2.00;;
15082;SDS011;7640;53.116;6.878;2023-10-08T05:24:45;4.47;;;1.67;;
15082;SDS011;7640;53.116;6.878;2023-10-08T05:27:34;7.37;;;1.87;;
15082;SDS011;7640;53.116;6.878;2023-10-08T05:30:22;5.57;;;1.70;;
15082;SDS011;7640;53.116;6.878;2023-10-08T05:32:55;5.03;;;1.80;;
15082;SDS011;7640;53.116;6.878;2023-10-08T05:35:33;5.93;;;2.00;;
15082;SDS011;7640;53.116;6.878;2023-10-08T05:38:29;4.77;;;1.77;;
15082;SDS011;7640;53.116;6.878;2023-10-08T05:41:27;8.87;;;2.00;;
15082;SDS011;7640;53.116;6.878;2023-10-08T05:43:57;6.83;;;2.00;;
15082;SDS011;7640;53.116;6.878;2023-10-08T05:46:52;4.77;;;2.10;;
15082;SDS011;7640;53.116;6.878;2023-10-08T05:49:39;6.30;;;2.20;;
15082;SDS011;7640;53.116;6.878;2023-10-08T05:52:21;6.47;;;2.70;;
15082;SDS011;7640;53.116;6.878;2023-10-08T05:54:52;8.17;;;3.23;;
15082;SDS011;7640;53.116;6.878;2023-10-08T05:57:53;5.77;;;1.90;;
15082;SDS011;7640;53.116;6.878;2023-10-08T06:00:51;7.17;;;2.70;;
15082;SDS011;7640;53.116;6.878;2023-10-08T06:03:54;5.57;;;2.13;;
15082;SDS011;7640;53.116;6.878;2023-10-08T06:06:38;8.03;;;2.87;;
15082;SDS011;7640;53.116;6.878;2023-10-08T06:09:14;8.47;;;2.83;;
15082;SDS011;7640;53.116;6.878;2023-10-08T06:11:49;5.60;;;2.13;;
15082;SDS011;7640;53.116;6.878;2023-10-08T06:14:33;7.30;;;2.00;;
15082;SDS011;7640;53.116;6.878;2023-10-08T06:17:34;5.97;;;1.90;;
15082;SDS011;7640;53.116;6.878;2023-10-08T06:20:35;5.60;;;2.60;;
15082;SDS011;7640;53.116;6.878;2023-10-08T06:23:05;7.83;;;4.00;;
15082;SDS011;7640;53.116;6.878;2023-10-08T06:25:34;7.27;;;3.47;;
15082;SDS011;7640;53.116;6.878;2023-10-08T06:28:12;6.17;;;2.93;;
15082;SDS011;7640;53.116;6.878;2023-10-08T06:30:45;7.40;;;3.40;;
15082;SDS011;7640;53.116;6.878;2023-10-08T06:33:15;4.07;;;2.50;;
15082;SDS011;7640;53.116;6.878;2023-10-08T06:35:45;6.17;;;2.93;;
15082;SDS011;7640;53.116;6.878;2023-10-08T06:38:28;6.43;;;2.47;;
15082;SDS011;7640;53.116;6.878;2023-10-08T06:40:58;5.87;;;2.60;;
15082;SDS011;7640;53.116;6.878;2023-10-08T06:43:35;6.30;;;2.60;;
15082;SDS011;7640;53.116;6.878;2023-10-08T06:46:04;4.83;;;2.63;;
15082;SDS011;7640;53.116;6.878;2023-10-08T06:48:34;9.50;;;3.53;;
15082;SDS011;7640;53.116;6.878;2023-10-08T06:51:06;7.47;;;4.03;;
15082;SDS011;7640;53.116;6.878;2023-10-08T06:53:40;9.83;;;4.10;;
15082;SDS011;7640;53.116;6.878;2023-10-08T06:56:11;6.43;;;3.40;;
15082;SDS011;7640;53.116;6.878;2023-10-08T06:58:42;8.20;;;2.67;;
15082;SDS011;7640;53.116;6.878;2023-10-08T07:01:14;9.77;;;2.43;;
15082;SDS011;7640;53.116;6.878;2023-10-08T07:03:47;6.80;;;2.30;;
15082;SDS011;7640;53.116;6.878;2023-10-08T07:06:19;5.43;;;2.40;;
15082;SDS011;7640;53.116;6.878;2023-10-08T07:08:58;6.43;;;2.50;;
15082;SDS011;7640;53.116;6.878;2023-10-08T07:11:31;7.23;;;2.60;;
15082;SDS011;7640;53.116;6.878;2023-10-08T07:14:01;5.73;;;2.30;;
15082;SDS011;7640;53.116;6.878;2023-10-08T07:16:30;5.20;;;2.40;;
15082;SDS011;7640;53.116;6.878;2023-10-08T07:19:01;6.73;;;2.40;;
15082;SDS011;7640;53.116;6.878;2023-10-08T07:21:43;9.57;;;2.33;;
15082;SDS011;7640;53.116;6.878;2023-10-08T07:24:13;6.00;;;3.07;;
15082;SDS011;7640;53.116;6.878;2023-10-08T07:26:44;3.83;;;2.30;;
15082;SDS011;7640;53.116;6.878;2023-10-08T07:29:14;6.90;;;2.17;;
15082;SDS011;7640;53.116;6.878;2023-10-08T07:31:44;5.53;;;1.90;;
15082;SDS011;7640;53.116;6.878;2023-10-08T07:34:16;3.77;;;1.90;;
15082;SDS011;7640;53.116;6.878;2023-10-08T07:36:47;10.00;;;3.90;;
15082;SDS011;7640;53.116;6.878;2023-10-08T07:39:17;10.23;;;2.67;;
15082;SDS011;7640;53.116;6.878;2023-10-08T07:42:01;4.03;;;1.90;;
15082;SDS011;7640;53.116;6.878;2023-10-08T07:44:34;5.00;;;2.10;;
15082;SDS011;7640;53.116;6.878;2023-10-08T07:47:05;8.13;;;2.20;;
15082;SDS011;7640;53.116;6.878;2023-10-08T07:49:38;6.03;;;1.93;;
15082;SDS011;7640;53.116;6.878;2023-10-08T07:52:11;6.23;;;2.10;;
15082;SDS011;7640;53.116;6.878;2023-10-08T07:54:43;5.60;;;2.20;;
15082;SDS011;7640;53.116;6.878;2023-10-08T07:57:12;8.03;;;2.10;;
15082;SDS011;7640;53.116;6.878;2023-10-08T07:59:45;6.07;;;1.60;;
15082;SDS011;7640;53.116;6.878;2023-10-08T08:02:15;5.03;;;1.80;;
15082;SDS011;7640;53.116;6.878;2023-10-08T08:04:49;6.10;;;1.83;;
15082;SDS011;7640;53.116;6.878;2023-10-08T08:07:21;3.90;;;1.67;;
15082;SDS011;7640;53.116;6.878;2023-10-08T08:09:51;6.17;;;2.27;;
15082;SDS011;7640;53.116;6.878;2023-10-08T08:12:26;5.77;;;1.90;;
15082;SDS011;7640;53.116;6.878;2023-10-08T08:14:59;5.83;;;1.83;;
15082;SDS011;7640;53.116;6.878;2023-10-08T08:17:30;7.00;;;2.00;;
15082;SDS011;7640;53.116;6.878;2023-10-08T08:20:00;6.17;;;2.23;;
15082;SDS011;7640;53.116;6.878;2023-10-08T08:22:45;7.67;;;1.90;;
15082;SDS011;7640;53.116;6.878;2023-10-08T08:25:16;4.73;;;1.93;;
15082;SDS011;7640;53.116;6.878;2023-10-08T08:28:00;7.27;;;1.80;;
15082;SDS011;7640;53.116;6.878;2023-10-08T08:30:32;8.70;;;2.30;;
15082;SDS011;7640;53.116;6.878;2023-10-08T08:33:03;5.37;;;1.67;;
15082;SDS011;7640;53.116;6.878;2023-10-08T08:35:37;4.73;;;1.83;;
15082;SDS011;7640;53.116;6.878;2023-10-08T08:38:08;5.93;;;2.20;;
15082;SDS011;7640;53.116;6.878;2023-10-08T08:40:38;4.83;;;1.70;;
15082;SDS011;7640;53.116;6.878;2023-10-08T08:43:08;5.10;;;1.83;;
15082;SDS011;7640;53.116;6.878;2023-10-08T08:45:38;5.17;;;1.70;;
15082;SDS011;7640;53.116;6.878;2023-10-08T08:48:10;7.30;;;1.67;;
15082;SDS011;7640;53.116;6.878;2023-10-08T08:50:40;6.10;;;1.53;;
15082;SDS011;7640;53.116;6.878;2023-10-08T08:53:11;5.53;;;1.70;;
15082;SDS011;7640;53.116;6.878;2023-10-08T08:55:41;6.30;;;1.40;;
15082;SDS011;7640;53.116;6.878;2023-10-08T08:58:10;4.00;;;1.60;;
15082;SDS011;7640;53.116;6.878;2023-10-08T09:00:39;9.17;;;1.77;;
15082;SDS011;7640;53.116;6.878;2023-10-08T09:03:09;4.00;;;1.47;;
15082;SDS011;7640;53.116;6.878;2023-10-08T09:05:40;7.50;;;2.30;;
15082;SDS011;7640;53.116;6.878;2023-10-08T09:08:13;4.27;;;2.07;;
15082;SDS011;7640;53.116;6.878;2023-10-08T09:10:45;5.97;;;2.00;;
15082;SDS011;7640;53.116;6.878;2023-10-08T09:13:19;8.70;;;1.80;;
15082;SDS011;7640;53.116;6.878;2023-10-08T09:15:49;4.67;;;1.50;;
15082;SDS011;7640;53.116;6.878;2023-10-08T09:18:21;8.23;;;1.90;;
15082;SDS011;7640;53.116;6.878;2023-10-08T09:20:54;6.77;;;1.60;;
15082;SDS011;7640;53.116;6.878;2023-10-08T09:23:24;6.80;;;1.77;;
15082;SDS011;7640;53.116;6.878;2023-10-08T09:25:53;10.43;;;1.93;;
15082;SDS011;7640;53.116;6.878;2023-10-08T09:28:30;5.60;;;1.77;;
15082;SDS011;7640;53.116;6.878;2023-10-08T09:31:01;5.97;;;1.90;;
15082;SDS011;7640;53.116;6.878;2023-10-08T09:33:31;9.23;;;1.80;;
15082;SDS011;7640;53.116;6.878;2023-10-08T09:36:03;5.73;;;1.40;;
15082;SDS011;7640;53.116;6.878;2023-10-08T09:38:35;7.77;;;1.80;;
15082;SDS011;7640;53.116;6.878;2023-10-08T09:41:08;6.33;;;1.80;;
15082;SDS011;7640;53.116;6.878;2023-10-08T09:43:38;8.37;;;2.23;;
15082;SDS011;7640;53.116;6.878;2023-10-08T09:46:09;9.07;;;2.27;;
15082;SDS011;7640;53.116;6.878;2023-10-08T09:48:44;6.50;;;1.90;;
15082;SDS011;7640;53.116;6.878;2023-10-08T09:51:19;7.63;;;1.73;;
15082;SDS011;7640;53.116;6.878;2023-10-08T09:53:55;7.80;;;1.73;;
15082;SDS011;7640;53.116;6.878;2023-10-08T09:56:37;8.67;;;2.03;;
15082;SDS011;7640;53.116;6.878;2023-10-08T09:59:09;5.73;;;1.73;;
15082;SDS011;7640;53.116;6.878;2023-10-08T10:01:38;7.77;;;1.87;;
15082;SDS011;7640;53.116;6.878;2023-10-08T10:04:10;5.47;;;1.50;;
15082;SDS011;7640;53.116;6.878;2023-10-08T10:06:41;4.37;;;1.97;;
15082;SDS011;7640;53.116;6.878;2023-10-08T10:09:15;5.03;;;1.80;;
15082;SDS011;7640;53.116;6.878;2023-10-08T10:11:49;8.57;;;2.13;;
15082;SDS011;7640;53.116;6.878;2023-10-08T10:14:21;7.80;;;1.80;;
15082;SDS011;7640;53.116;6.878;2023-10-08T10:17:07;7.27;;;1.70;;
15082;SDS011;7640;53.116;6.878;2023-10-08T10:19:44;6.17;;;1.90;;
15082;SDS011;7640;53.116;6.878;2023-10-08T10:22:13;5.27;;;1.83;;
15082;SDS011;7640;53.116;6.878;2023-10-08T10:24:57;7.17;;;1.70;;
15082;SDS011;7640;53.116;6.878;2023-10-08T10:27:30;8.27;;;2.00;;
15082;SDS011;7640;53.116;6.878;2023-10-08T10:30:01;7.20;;;1.73;;
15082;SDS011;7640;53.116;6.878;2023-10-08T10:32:35;5.80;;;1.43;;
15082;SDS011;7640;53.116;6.878;2023-10-08T10:35:04;5.70;;;1.30;;
15082;SDS011;7640;53.116;6.878;2023-10-08T10:37:37;5.47;;;1.60;;
15082;SDS011;7640;53.116;6.878;2023-10-08T10:40:11;5.00;;;1.30;;
15082;SDS011;7640;53.116;6.878;2023-10-08T10:42:40;6.63;;;1.80;;
15082;SDS011;7640;53.116;6.878;2023-10-08T10:45:14;8.93;;;2.07;;
15082;SDS011;7640;53.116;6.878;2023-10-08T10:48:02;6.97;;;2.17;;
15082;SDS011;7640;53.116;6.878;2023-10-08T10:50:49;7.17;;;1.87;;
15082;SDS011;7640;53.116;6.878;2023-10-08T10:53:33;8.80;;;1.93;;
15082;SDS011;7640;53.116;6.878;2023-10-08T10:56:13;4.20;;;1.60;;
15082;SDS011;7640;53.116;6.878;2023-10-08T10:58:46;5.27;;;2.50;;
15082;SDS011;7640;53.116;6.878;2023-10-08T11:01:22;5.63;;;1.80;;
15082;SDS011;7640;53.116;6.878;2023-10-08T11:03:56;8.43;;;2.03;;
15082;SDS011;7640;53.116;6.878;2023-10-08T11:06:25;5.70;;;1.70;;
15082;SDS011;7640;53.116;6.878;2023-10-08T11:08:54;9.93;;;2.13;;
15082;SDS011;7640;53.116;6.878;2023-10-08T11:11:26;8.83;;;1.70;;
15082;SDS011;7640;53.116;6.878;2023-10-08T11:13:56;8.60;;;1.83;;
15082;SDS011;7640;53.116;6.878;2023-10-08T11:16:27;5.87;;;1.70;;
15082;SDS011;7640;53.116;6.878;2023-10-08T11:18:58;6.40;;;2.00;;
15082;SDS011;7640;53.116;6.878;2023-10-08T11:21:42;8.27;;;2.00;;
15082;SDS011;7640;53.116;6.878;2023-10-08T11:24:27;7.47;;;1.97;;
15082;SDS011;7640;53.116;6.878;2023-10-08T11:26:57;7.10;;;2.00;;
15082;SDS011;7640;53.116;6.878;2023-10-08T11:29:43;7.23;;;1.77;;
15082;SDS011;7640;53.116;6.878;2023-10-08T11:32:15;8.60;;;1.90;;
15082;SDS011;7640;53.116;6.878;2023-10-08T11:34:45;7.37;;;1.70;;
15082;SDS011;7640;53.116;6.878;2023-10-08T11:37:26;5.13;;;1.47;;
15082;SDS011;7640;53.116;6.878;2023-10-08T11:39:55;5.40;;;1.77;;
15082;SDS011;7640;53.116;6.878;2023-10-08T11:42:27;6.57;;;1.53;;
15082;SDS011;7640;53.116;6.878;2023-10-08T11:45:10;6.93;;;1.97;;
15082;SDS011;7640;53.116;6.878;2023-10-08T11:47:45;4.18;;;1.73;;
15082;SDS011;7640;53.116;6.878;2023-10-08T11:50:15;7.60;;;1.40;;
15082;SDS011;7640;53.116;6.878;2023-10-08T11:52:46;6.20;;;1.80;;
15082;SDS011;7640;53.116;6.878;2023-10-08T11:55:19;6.05;;;1.90;;
15082;SDS011;7640;53.116;6.878;2023-10-08T11:57:48;5.43;;;1.80;;
15082;SDS011;7640;53.116;6.878;2023-10-08T12:00:18;3.60;;;1.53;;
15082;SDS011;7640;53.116;6.878;2023-10-08T12:02:58;6.27;;;1.67;;
15082;SDS011;7640;53.116;6.878;2023-10-08T12:05:29;6.13;;;1.80;;
15082;SDS011;7640;53.116;6.878;2023-10-08T12:07:59;8.57;;;2.17;;
15082;SDS011;7640;53.116;6.878;2023-10-08T12:10:30;7.60;;;1.90;;
15082;SDS011;7640;53.116;6.878;2023-10-08T12:13:02;5.83;;;1.80;;
15082;SDS011;7640;53.116;6.878;2023-10-08T12:15:32;4.50;;;1.65;;
15082;SDS011;7640;53.116;6.878;2023-10-08T12:18:05;5.75;;;1.40;;
15082;SDS011;7640;53.116;6.878;2023-10-08T12:20:42;7.32;;;1.80;;
15082;SDS011;7640;53.116;6.878;2023-10-08T12:23:13;4.60;;;1.60;;
15082;SDS011;7640;53.116;6.878;2023-10-08T12:25:51;5.90;;;2.03;;
15082;SDS011;7640;53.116;6.878;2023-10-08T12:28:24;4.65;;;1.70;;
15082;SDS011;7640;53.116;6.878;2023-10-08T12:30:54;7.53;;;1.70;;
15082;SDS011;7640;53.116;6.878;2023-10-08T12:33:23;6.63;;;1.70;;
15082;SDS011;7640;53.116;6.878;2023-10-08T12:35:52;5.70;;;1.55;;
15082;SDS011;7640;53.116;6.878;2023-10-08T12:38:22;6.05;;;1.60;;
15082;SDS011;7640;53.116;6.878;2023-10-08T12:40:54;5.65;;;1.77;;
15082;SDS011;7640;53.116;6.878;2023-10-08T12:43:27;5.20;;;1.80;;
15082;SDS011;7640;53.116;6.878;2023-10-08T12:45:57;5.28;;;1.77;;
15082;SDS011;7640;53.116;6.878;2023-10-08T12:48:29;4.53;;;1.45;;
15082;SDS011;7640;53.116;6.878;2023-10-08T12:50:58;3.78;;;1.60;;
15082;SDS011;7640;53.116;6.878;2023-10-08T12:53:27;5.28;;;1.88;;
15082;SDS011;7640;53.116;6.878;2023-10-08T12:56:01;4.93;;;1.40;;
15082;SDS011;7640;53.116;6.878;2023-10-08T12:58:35;5.10;;;1.50;;
15082;SDS011;7640;53.116;6.878;2023-10-08T13:01:08;6.47;;;1.42;;
15082;SDS011;7640;53.116;6.878;2023-10-08T13:03:38;6.07;;;1.77;;
15082;SDS011;7640;53.116;6.878;2023-10-08T13:06:09;6.57;;;1.67;;
15082;SDS011;7640;53.116;6.878;2023-10-08T13:08:41;3.92;;;1.35;;
15082;SDS011;7640;53.116;6.878;2023-10-08T13:11:10;3.28;;;1.38;;
15082;SDS011;7640;53.116;6.878;2023-10-08T13:13:40;7.32;;;1.80;;
15082;SDS011;7640;53.116;6.878;2023-10-08T13:16:08;6.45;;;1.60;;
15082;SDS011;7640;53.116;6.878;2023-10-08T13:18:39;3.42;;;1.40;;
15082;SDS011;7640;53.116;6.878;2023-10-08T13:21:10;6.75;;;1.65;;
15082;SDS011;7640;53.116;6.878;2023-10-08T13:23:39;8.05;;;1.98;;
15082;SDS011;7640;53.116;6.878;2023-10-08T13:26:08;5.20;;;1.58;;
15082;SDS011;7640;53.116;6.878;2023-10-08T13:28:45;3.92;;;1.42;;
15082;SDS011;7640;53.116;6.878;2023-10-08T13:31:13;7.22;;;1.77;;
15082;SDS011;7640;53.116;6.878;2023-10-08T13:33:44;7.53;;;1.85;;
15082;SDS011;7640;53.116;6.878;2023-10-08T13:36:18;6.25;;;1.70;;
15082;SDS011;7640;53.116;6.878;2023-10-08T13:38:47;4.60;;;1.40;;
15082;SDS011;7640;53.116;6.878;2023-10-08T13:41:16;5.22;;;1.40;;
15082;SDS011;7640;53.116;6.878;2023-10-08T13:43:46;6.50;;;1.67;;
15082;SDS011;7640;53.116;6.878;2023-10-08T13:46:18;4.72;;;1.60;;
15082;SDS011;7640;53.116;6.878;2023-10-08T13:48:49;4.32;;;1.80;;
15082;SDS011;7640;53.116;6.878;2023-10-08T13:51:19;5.18;;;1.63;;
15082;SDS011;7640;53.116;6.878;2023-10-08T13:53:52;4.40;;;1.40;;
15082;SDS011;7640;53.116;6.878;2023-10-08T13:56:26;4.93;;;1.55;;
15082;SDS011;7640;53.116;6.878;2023-10-08T13:58:59;4.57;;;1.75;;
15082;SDS011;7640;53.116;6.878;2023-10-08T14:01:40;6.60;;;1.40;;
15082;SDS011;7640;53.116;6.878;2023-10-08T14:04:13;3.47;;;1.77;;
15082;SDS011;7640;53.116;6.878;2023-10-08T14:06:46;5.03;;;1.55;;
15082;SDS011;7640;53.116;6.878;2023-10-08T14:09:19;6.63;;;1.73;;
15082;SDS011;7640;53.116;6.878;2023-10-08T14:11:59;4.80;;;2.40;;
15082;SDS011;7640;53.116;6.878;2023-10-08T14:14:29;8.35;;;2.50;;
15082;SDS011;7640;53.116;6.878;2023-10-08T14:17:00;5.00;;;1.83;;
15082;SDS011;7640;53.116;6.878;2023-10-08T14:19:35;5.57;;;1.80;;
15082;SDS011;7640;53.116;6.878;2023-10-08T14:22:13;7.68;;;1.80;;
15082;SDS011;7640;53.116;6.878;2023-10-08T14:24:43;5.88;;;1.75;;
15082;SDS011;7640;53.116;6.878;2023-10-08T14:27:25;7.50;;;2.20;;
15082;SDS011;7640;53.116;6.878;2023-10-08T14:30:00;6.97;;;1.98;;
15082;SDS011;7640;53.116;6.878;2023-10-08T14:32:32;8.07;;;2.10;;
15082;SDS011;7640;53.116;6.878;2023-10-08T14:35:02;4.53;;;1.80;;
15082;SDS011;7640;53.116;6.878;2023-10-08T14:37:49;8.33;;;2.20;;
15082;SDS011;7640;53.116;6.878;2023-10-08T14:40:35;4.03;;;1.87;;
15082;SDS011;7640;53.116;6.878;2023-10-08T14:43:21;4.13;;;1.60;;
15082;SDS011;7640;53.116;6.878;2023-10-08T14:45:52;5.93;;;1.83;;
15082;SDS011;7640;53.116;6.878;2023-10-08T14:48:21;6.47;;;1.70;;
15082;SDS011;7640;53.116;6.878;2023-10-08T14:50:50;8.27;;;1.73;;
15082;SDS011;7640;53.116;6.878;2023-10-08T14:53:20;4.70;;;1.75;;
15082;SDS011;7640;53.116;6.878;2023-10-08T14:55:51;7.30;;;1.80;;
15082;SDS011;7640;53.116;6.878;2023-10-08T14:58:21;12.70;;;3.20;;
15082;SDS011;7640;53.116;6.878;2023-10-08T15:00:53;9.90;;;3.00;;
15082;SDS011;7640;53.116;6.878;2023-10-08T15:03:22;9.80;;;3.20;;
15082;SDS011;7640;53.116;6.878;2023-10-08T15:05:54;8.45;;;2.72;;
15082;SDS011;7640;53.116;6.878;2023-10-08T15:08:23;7.30;;;2.30;;
15082;SDS011;7640;53.116;6.878;2023-10-08T15:10:53;4.87;;;2.10;;
15082;SDS011;7640;53.116;6.878;2023-10-08T15:13:22;9.10;;;2.97;;
15082;SDS011;7640;53.116;6.878;2023-10-08T15:15:54;12.33;;;4.30;;
15082;SDS011;7640;53.116;6.878;2023-10-08T15:18:25;14.20;;;4.53;;
15082;SDS011;7640;53.116;6.878;2023-10-08T15:20:59;13.40;;;4.23;;
15082;SDS011;7640;53.116;6.878;2023-10-08T15:23:30;7.50;;;3.27;;
15082;SDS011;7640;53.116;6.878;2023-10-08T15:25:59;5.77;;;1.90;;
15082;SDS011;7640;53.116;6.878;2023-10-08T15:28:29;6.63;;;1.93;;
15082;SDS011;7640;53.116;6.878;2023-10-08T15:31:00;8.47;;;2.13;;
15082;SDS011;7640;53.116;6.878;2023-10-08T15:33:29;4.53;;;1.80;;
15082;SDS011;7640;53.116;6.878;2023-10-08T15:35:58;5.60;;;1.87;;
15082;SDS011;7640;53.116;6.878;2023-10-08T15:38:27;5.17;;;1.70;;
15082;SDS011;7640;53.116;6.878;2023-10-08T15:40:57;4.37;;;1.70;;